Terminal Aerodrome Forecast
Issued by NWS Memphis, TN

Home | Current Version | Previous Version | Text Only | Print | Product List | Glossary On
Versions: 1 2 3 4 5 6 7 8 9 10 11 12 13 14 15 16 17 18
000
FTUS44 KMEG 250530
TAFJBR
TAF
KJBR 250530Z 2506/2606 17015G22KT 6SM -SHRA BR OVC005
     FM250700 18015G22KT P6SM VCTS OVC006CB
      TEMPO 2507/2509 5SM -SHRA OVC005
     FM251400 23023G33KT P6SM SCT025
     FM260000 23012KT P6SM SKC
     FM260300 24012KT P6SM BKN040=

USA.gov is the U.S. government's official web portal to all federal, state and local government web resources and services.